Time;durP1;ratioP1;P1;durP2;ratioP2;P2;SDS_P1;SDS_P2;PMS_P1;PMS_P2;Temp;Humidity;BMP_temperature;BMP_pressure;BME280_temperature;BME280_humidity;BME280_pressure;Samples;Min_cycle;Max_cycle;Signal;HPM_P1;HPM_P2
2022/10/17 00:02:22;;;;;;;7.30;3.67;;;12.50;99.90;;;;;;5026734;28;20045;-87
2022/10/17 00:04:48;;;;;;;6.72;3.13;;;12.60;99.90;;;;;;5044193;28;20055;-88
2022/10/17 00:07:13;;;;;;;5.55;3.67;;;12.50;99.90;;;;;;5060128;28;20052;-87
2022/10/17 00:09:42;;;;;;;4.40;2.75;;;12.60;99.90;;;;;;5027378;28;20055;-87
2022/10/17 00:12:08;;;;;;;4.20;3.30;;;12.60;99.90;;;;;;5043583;28;20610;-88
2022/10/17 00:14:34;;;;;;;5.95;3.40;;;12.60;99.90;;;;;;5043832;28;20087;-88
2022/10/17 00:17:00;;;;;;;9.68;4.45;;;12.70;99.90;;;;;;5048741;28;20041;-88
2022/10/17 00:19:25;;;;;;;14.73;7.13;;;12.70;99.90;;;;;;5029079;28;20067;-88
2022/10/17 00:21:51;;;;;;;10.13;6.55;;;12.70;99.90;;;;;;5027612;28;20135;-88
2022/10/17 00:24:17;;;;;;;10.93;5.93;;;12.70;99.90;;;;;;5043427;28;20044;-87
2022/10/17 00:26:43;;;;;;;12.45;5.97;;;12.80;99.90;;;;;;5027388;28;20056;-88
2022/10/17 00:29:08;;;;;;;6.57;4.60;;;12.80;99.90;;;;;;5045966;28;20044;-89
2022/10/17 00:31:34;;;;;;;7.95;4.65;;;12.80;99.90;;;;;;5028692;28;20041;-87
2022/10/17 00:34:00;;;;;;;7.63;4.53;;;12.90;99.90;;;;;;5044017;28;20613;-87
2022/10/17 00:36:26;;;;;;;11.55;4.95;;;12.90;99.90;;;;;;5059362;28;20037;-88
2022/10/17 00:38:56;;;;;;;6.70;4.22;;;12.90;99.90;;;;;;5042906;28;20040;-88
2022/10/17 00:41:25;;;;;;;8.02;4.03;;;12.90;99.90;;;;;;5059598;28;20063;-87
2022/10/17 00:43:55;;;;;;;7.70;4.80;;;12.90;99.90;;;;;;5060033;28;20404;-87
2022/10/17 00:46:24;;;;;;;10.27;4.20;;;12.90;99.90;;;;;;5060061;28;20045;-88
2022/10/17 00:48:52;;;;;;;30.77;17.75;;;12.90;99.90;;;;;;5059415;28;20049;-88
2022/10/17 00:51:23;;;;;;;33.65;23.17;;;12.90;99.90;;;;;;5060655;28;20067;-88
2022/10/17 00:53:50;;;;;;;37.03;21.30;;;12.90;99.90;;;;;;5042864;28;20045;-87
2022/10/17 00:56:18;;;;;;;32.60;20.85;;;12.90;99.90;;;;;;5059798;28;20128;-88
2022/10/17 00:58:44;;;;;;;80.97;55.67;;;12.90;99.90;;;;;;5042986;28;20033;-87
2022/10/17 01:01:10;;;;;;;93.28;60.38;;;13.00;99.90;;;;;;5059274;28;20079;-88
2022/10/17 01:03:36;;;;;;;89.53;60.28;;;12.90;99.90;;;;;;5026341;28;20053;-88
2022/10/17 01:06:01;;;;;;;91.32;58.47;;;13.00;99.90;;;;;;5059032;28;20420;-88
2022/10/17 01:08:27;;;;;;;128.98;81.95;;;13.00;99.90;;;;;;5026884;28;20056;-88
2022/10/17 01:11:21;;;;;;;131.05;82.50;;;13.00;99.90;;;;;;5041951;28;20084;-88
2022/10/17 01:14:07;;;;;;;141.07;80.93;;;13.00;99.90;;;;;;5042770;28;20149;-88
2022/10/17 01:16:57;;;;;;;140.20;80.97;;;13.00;99.90;;;;;;5059582;28;20131;-88
2022/10/17 01:19:36;;;;;;;135.02;75.70;;;12.90;99.90;;;;;;5041890;28;20048;-87
2022/10/17 01:22:07;;;;;;;133.90;69.45;;;12.90;99.90;;;;;;5042616;28;20049;-88
2022/10/17 01:25:01;;;;;;;86.53;48.97;;;12.80;99.90;;;;;;5042216;28;20057;-88
2022/10/17 01:28:17;;;;;;;74.97;40.47;;;12.70;99.90;;;;;;5058569;28;20060;-88
2022/10/17 01:30:49;;;;;;;66.70;32.47;;;12.70;99.90;;;;;;5043400;28;20049;-88
2022/10/17 01:33:47;;;;;;;27.50;16.40;;;12.60;99.90;;;;;;5058667;28;20072;-88
2022/10/17 01:36:36;;;;;;;17.02;8.63;;;12.60;99.90;;;;;;5041636;28;20108;-88
2022/10/17 01:39:28;;;;;;;14.32;6.05;;;12.60;99.90;;;;;;5055910;28;20057;-88
2022/10/17 01:42:10;;;;;;;9.85;5.50;;;12.50;99.90;;;;;;5058665;28;20079;-88
2022/10/17 01:44:41;;;;;;;;;;;12.50;99.90;;;;;;5042113;28;20095;-87
2022/10/17 01:47:12;;;;;;;13.13;5.75;;;12.50;99.90;;;;;;5042512;28;19921;-88
2022/10/17 01:49:40;;;;;;;11.73;6.67;;;12.50;99.90;;;;;;5041459;28;20041;-88
2022/10/17 01:52:14;;;;;;;13.40;6.75;;;12.50;99.90;;;;;;5058941;28;20071;-88
2022/10/17 01:54:44;;;;;;;16.02;6.78;;;12.50;99.90;;;;;;5041935;28;20055;-88
2022/10/17 01:57:37;;;;;;;16.73;9.60;;;12.50;99.90;;;;;;5058279;28;20105;-88
2022/10/17 02:00:09;;;;;;;18.02;9.27;;;12.50;99.90;;;;;;5042183;28;20116;-88
2022/10/17 02:02:36;;;;;;;25.90;9.53;;;12.50;99.90;;;;;;5057906;28;20079;-88
2022/10/17 02:05:02;;;;;;;17.92;8.57;;;12.50;99.90;;;;;;5041829;28;20052;-88
2022/10/17 02:07:28;;;;;;;20.27;8.55;;;12.50;99.90;;;;;;5058333;28;20045;-88
2022/10/17 02:09:54;;;;;;;14.20;6.85;;;12.50;99.90;;;;;;5057771;28;20066;-88
2022/10/17 02:12:38;;;;;;;16.02;8.10;;;12.50;99.90;;;;;;5058919;28;20081;-88
2022/10/17 02:15:12;;;;;;;17.10;7.90;;;12.50;99.90;;;;;;5057635;28;20045;-87
2022/10/17 02:17:54;;;;;;;13.77;6.85;;;12.50;99.90;;;;;;5058415;28;20515;-88
2022/10/17 02:20:29;;;;;;;12.65;7.15;;;12.50;99.90;;;;;;5060359;28;20055;-88
2022/10/17 02:23:10;;;;;;;21.55;5.78;;;12.50;99.90;;;;;;5045287;28;20044;-88
2022/10/17 02:25:44;;;;;;;15.70;6.18;;;12.40;99.90;;;;;;5059363;28;20057;-88
2022/10/17 02:28:29;;;;;;;12.02;6.00;;;12.40;99.90;;;;;;5057716;28;20056;-87
2022/10/17 02:30:59;;;;;;;12.73;5.63;;;12.40;99.90;;;;;;5058244;28;20045;-87
2022/10/17 02:33:33;;;;;;;9.40;5.70;;;12.40;99.90;;;;;;5059018;28;20557;-88
2022/10/17 02:36:06;;;;;;;15.88;5.85;;;12.40;99.90;;;;;;5041286;28;20076;-88
2022/10/17 02:38:33;;;;;;;14.88;5.65;;;12.40;99.90;;;;;;5062127;28;20056;-88
2022/10/17 02:40:59;;;;;;;12.45;6.13;;;12.40;99.90;;;;;;5062111;28;20076;-89
2022/10/17 02:43:26;;;;;;;8.25;5.75;;;12.40;99.90;;;;;;5060325;28;20126;-88
2022/10/17 02:45:52;;;;;;;8.73;5.78;;;12.50;99.90;;;;;;5051094;28;20041;-87
2022/10/17 02:48:30;;;;;;;9.38;6.85;;;12.50;99.90;;;;;;5070130;28;20052;-88
2022/10/17 02:51:10;;;;;;;15.65;5.70;;;12.50;99.90;;;;;;5071052;28;20033;-88
2022/10/17 02:54:05;;;;;;;10.57;6.40;;;12.60;99.90;;;;;;5050376;28;20096;-88
2022/10/17 02:56:56;;;;;;;10.40;6.45;;;12.60;99.90;;;;;;5065190;28;20036;-88
2022/10/17 02:59:25;;;;;;;12.35;5.78;;;12.60;99.90;;;;;;5042468;28;20128;-88
2022/10/17 03:01:51;;;;;;;11.00;6.32;;;12.60;99.90;;;;;;5042414;28;20191;-87
2022/10/17 03:04:18;;;;;;;11.05;6.00;;;12.60;99.90;;;;;;5029597;28;20048;-88
2022/10/17 03:06:46;;;;;;;11.20;6.43;;;12.60;99.90;;;;;;5061296;28;20060;-87
2022/10/17 03:09:12;;;;;;;14.55;6.13;;;12.60;99.90;;;;;;5061793;28;20076;-88
2022/10/17 03:11:38;;;;;;;16.10;7.20;;;12.60;99.90;;;;;;5028248;28;20045;-87
2022/10/17 03:14:05;;;;;;;10.38;6.40;;;12.60;99.90;;;;;;5045262;28;20494;-88
2022/10/17 03:16:31;;;;;;;8.88;5.95;;;12.70;99.90;;;;;;5061995;28;20044;-88
2022/10/17 03:18:56;;;;;;;14.98;6.25;;;12.70;99.90;;;;;;5044555;28;20048;-87
2022/10/17 03:21:22;;;;;;;10.63;6.75;;;12.70;99.90;;;;;;5062926;28;20071;-87
2022/10/17 03:23:48;;;;;;;13.05;6.38;;;12.70;99.90;;;;;;5061661;28;20518;-87
2022/10/17 03:26:13;;;;;;;13.15;7.32;;;12.70;99.90;;;;;;5063160;28;20053;-88
2022/10/17 03:28:39;;;;;;;16.13;6.95;;;12.80;99.90;;;;;;5045141;28;20064;-88
2022/10/17 03:31:10;;;;;;;13.85;6.20;;;12.80;99.90;;;;;;5061094;28;20049;-88
2022/10/17 03:33:36;;;;;;;17.60;7.47;;;12.80;99.90;;;;;;5044435;28;20088;-88
2022/10/17 03:36:10;;;;;;;10.23;6.88;;;12.90;99.90;;;;;;5044081;28;20064;-88
2022/10/17 03:38:36;;;;;;;15.65;6.95;;;12.90;99.90;;;;;;5062112;28;20077;-88
2022/10/17 03:41:03;;;;;;;12.60;8.07;;;12.90;99.90;;;;;;5027500;28;20084;-88
2022/10/17 03:43:29;;;;;;;13.18;7.68;;;13.00;99.90;;;;;;5044359;28;20101;-88
2022/10/17 03:45:57;;;;;;;9.82;6.82;;;13.00;99.90;;;;;;5060864;28;20078;-88
2022/10/17 03:48:23;;;;;;;16.10;7.38;;;13.00;99.90;;;;;;5062079;28;20037;-89
2022/10/17 03:50:49;;;;;;;15.30;7.47;;;13.10;99.90;;;;;;5044423;28;20120;-88
2022/10/17 03:53:15;;;;;;;14.35;7.63;;;13.10;99.90;;;;;;5043613;28;20052;-88
2022/10/17 03:55:41;;;;;;;19.15;7.80;;;13.10;99.90;;;;;;5044988;28;20051;-88
2022/10/17 03:58:06;;;;;;;12.88;7.53;;;13.10;99.90;;;;;;5043470;28;20504;-87
2022/10/17 04:00:35;;;;;;;9.57;7.10;;;13.10;99.90;;;;;;5044296;28;20045;-88
2022/10/17 04:03:01;;;;;;;18.08;7.60;;;13.10;99.90;;;;;;5043600;28;20033;-87
2022/10/17 04:05:26;;;;;;;14.15;7.82;;;13.20;99.90;;;;;;5027481;28;20056;-88
2022/10/17 04:07:52;;;;;;;13.00;7.20;;;13.20;99.90;;;;;;5044079;28;20045;-88
2022/10/17 04:10:18;;;;;;;16.02;8.25;;;13.20;99.90;;;;;;5043132;28;20446;-88
2022/10/17 04:12:43;;;;;;;14.23;8.40;;;13.20;99.90;;;;;;5043290;28;20049;-88
2022/10/17 04:15:09;;;;;;;16.33;8.10;;;13.20;99.90;;;;;;5026617;28;20049;-88
2022/10/17 04:17:35;;;;;;;17.77;8.55;;;13.20;99.90;;;;;;5027784;28;20041;-89
2022/10/17 04:20:01;;;;;;;15.07;7.88;;;13.20;99.90;;;;;;5060129;28;20103;-88
2022/10/17 04:22:27;;;;;;;12.63;7.97;;;13.20;99.90;;;;;;5043287;28;20071;-88
2022/10/17 04:24:52;;;;;;;14.13;8.13;;;13.30;99.90;;;;;;5043816;28;20060;-88
2022/10/17 04:27:18;;;;;;;12.85;8.40;;;13.30;99.90;;;;;;5043268;28;20063;-89
2022/10/17 04:29:44;;;;;;;15.38;8.70;;;13.30;99.90;;;;;;5027792;28;20029;-88
2022/10/17 04:32:09;;;;;;;14.27;7.88;;;13.30;99.90;;;;;;5026231;28;20065;-88
2022/10/17 04:34:35;;;;;;;13.40;7.63;;;13.30;99.90;;;;;;5027346;28;20132;-88
2022/10/17 04:37:01;;;;;;;14.75;8.35;;;13.30;99.90;;;;;;5043466;28;20096;-88
2022/10/17 04:39:27;;;;;;;16.58;8.38;;;13.40;99.90;;;;;;5042979;28;20158;-89
2022/10/17 04:41:52;;;;;;;13.23;8.63;;;13.40;99.90;;;;;;5059941;28;20045;-88
2022/10/17 04:44:19;;;;;;;12.77;8.10;;;13.40;99.90;;;;;;5059420;28;20041;-88
2022/10/17 04:46:45;;;;;;;11.35;7.28;;;13.30;99.90;;;;;;5043960;28;20530;-88
2022/10/17 04:49:11;;;;;;;13.93;8.00;;;13.40;99.90;;;;;;5059202;28;20044;-88
2022/10/17 04:51:38;;;;;;;14.48;9.07;;;13.40;99.90;;;;;;5027368;28;20068;-88
2022/10/17 04:54:04;;;;;;;11.93;8.63;;;13.30;99.90;;;;;;5059286;28;20080;-88
2022/10/17 04:56:30;;;;;;;13.75;8.05;;;13.40;99.90;;;;;;5043701;28;20049;-88
2022/10/17 04:58:58;;;;;;;15.27;8.65;;;13.40;99.90;;;;;;5063950;28;20408;-88
2022/10/17 05:01:24;;;;;;;17.02;8.63;;;13.40;99.90;;;;;;5044056;28;20037;-88
2022/10/17 05:03:50;;;;;;;14.15;8.20;;;13.30;99.90;;;;;;5046287;28;20099;-88
2022/10/17 05:06:19;;;;;;;15.48;7.70;;;13.40;99.90;;;;;;5044443;28;20087;-87
2022/10/17 05:08:46;;;;;;;13.13;8.00;;;13.40;99.90;;;;;;5043287;28;20053;-88
2022/10/17 05:11:26;;;;;;;13.50;7.93;;;13.40;99.90;;;;;;5042301;28;20060;-88
2022/10/17 05:13:53;;;;;;;13.63;7.85;;;13.40;99.90;;;;;;5042499;28;20041;-88
2022/10/17 05:16:19;;;;;;;16.88;8.93;;;13.40;99.90;;;;;;5059422;28;20045;-88
2022/10/17 05:18:48;;;;;;;13.55;7.40;;;13.50;99.90;;;;;;5058682;28;20067;-88
2022/10/17 05:21:14;;;;;;;15.32;8.43;;;13.50;99.90;;;;;;5043236;28;20041;-88
2022/10/17 05:23:40;;;;;;;17.30;9.45;;;13.50;99.90;;;;;;5058285;28;20092;-88
2022/10/17 05:26:05;;;;;;;16.13;8.35;;;13.50;99.90;;;;;;5026522;28;20045;-88
2022/10/17 05:28:32;;;;;;;16.77;8.63;;;13.50;99.90;;;;;;5043359;28;20475;-88
2022/10/17 05:31:05;;;;;;;15.73;8.40;;;13.60;99.90;;;;;;5062733;28;20045;-89
2022/10/17 05:33:31;;;;;;;17.23;9.40;;;13.60;99.90;;;;;;5059178;28;20045;-88
2022/10/17 05:35:57;;;;;;;11.93;8.20;;;13.60;99.90;;;;;;5058660;28;20044;-89
2022/10/17 05:38:23;;;;;;;17.80;9.13;;;13.60;99.90;;;;;;5043125;28;20508;-88
2022/10/17 05:40:49;;;;;;;15.68;8.25;;;13.60;99.90;;;;;;5041789;28;20051;-88
2022/10/17 05:43:15;;;;;;;14.43;7.70;;;13.60;99.90;;;;;;5059076;28;20112;-88
2022/10/17 05:45:41;;;;;;;13.63;8.55;;;13.70;99.90;;;;;;5025365;28;20051;-88
2022/10/17 05:48:07;;;;;;;16.90;8.27;;;13.70;99.90;;;;;;5041898;28;20511;-88
2022/10/17 05:50:34;;;;;;;12.90;8.00;;;13.70;99.90;;;;;;5025678;28;20120;-88
2022/10/17 05:52:59;;;;;;;14.20;7.88;;;13.80;99.90;;;;;;5058325;28;20090;-88
2022/10/17 05:55:25;;;;;;;16.05;8.50;;;13.80;99.90;;;;;;5026338;28;20574;-88
2022/10/17 05:57:52;;;;;;;23.38;8.48;;;13.80;99.90;;;;;;5058043;28;20045;-88
2022/10/17 06:00:19;;;;;;;15.73;8.68;;;13.80;99.90;;;;;;5059124;28;20090;-88
2022/10/17 06:02:45;;;;;;;13.63;7.88;;;13.80;99.90;;;;;;5057990;28;20057;-88
2022/10/17 06:05:12;;;;;;;14.25;8.15;;;13.80;99.90;;;;;;5041896;28;20057;-88
2022/10/17 06:07:38;;;;;;;17.00;8.88;;;13.80;99.90;;;;;;5025252;28;20041;-88
2022/10/17 06:10:04;;;;;;;13.80;8.23;;;13.90;99.90;;;;;;5025011;28;20038;-88
2022/10/17 06:12:30;;;;;;;13.18;8.27;;;13.90;99.90;;;;;;5042315;28;20436;-89
2022/10/17 06:14:56;;;;;;;16.80;8.73;;;14.00;99.90;;;;;;5024844;28;20052;-88
2022/10/17 06:17:21;;;;;;;15.38;8.57;;;14.00;99.90;;;;;;5042204;28;20114;-88
2022/10/17 06:19:47;;;;;;;13.35;7.88;;;14.00;99.90;;;;;;5024836;28;20083;-88
2022/10/17 06:22:13;;;;;;;13.65;7.53;;;14.00;99.90;;;;;;5041473;28;20045;-88
2022/10/17 06:24:39;;;;;;;18.60;8.50;;;14.00;99.90;;;;;;5041481;28;20048;-88
2022/10/17 06:27:05;;;;;;;15.82;8.32;;;14.00;99.90;;;;;;5059245;28;20087;-88
2022/10/17 06:29:30;;;;;;;20.65;8.10;;;14.10;99.90;;;;;;5058614;28;20045;-88
2022/10/17 06:31:56;;;;;;;16.63;7.90;;;14.10;99.90;;;;;;5040832;28;20079;-88
2022/10/17 06:34:22;;;;;;;14.15;7.85;;;14.20;99.90;;;;;;5041837;28;20044;-88
2022/10/17 06:36:47;;;;;;;12.32;7.35;;;14.20;99.90;;;;;;5040298;28;20048;-88
2022/10/17 06:39:13;;;;;;;16.42;7.25;;;14.20;99.90;;;;;;5041197;28;20037;-88
2022/10/17 06:41:40;;;;;;;12.07;7.55;;;14.30;99.90;;;;;;5041031;28;20049;-88
2022/10/17 06:44:09;;;;;;;13.65;7.25;;;14.30;99.90;;;;;;5057747;28;20057;-89
2022/10/17 06:46:36;;;;;;;16.67;7.13;;;14.40;99.90;;;;;;5042193;28;20052;-89
2022/10/17 06:49:03;;;;;;;15.95;8.85;;;14.40;99.90;;;;;;5024234;28;20136;-88
2022/10/17 06:51:30;;;;;;;14.85;7.18;;;14.40;99.90;;;;;;5058455;28;20045;-88
2022/10/17 06:53:57;;;;;;;12.45;7.57;;;14.40;99.90;;;;;;5041122;28;20056;-88
2022/10/17 06:56:23;;;;;;;11.80;6.93;;;14.40;99.90;;;;;;5041527;28;20450;-88
2022/10/17 06:58:50;;;;;;;14.77;7.78;;;14.50;99.90;;;;;;5024692;28;20461;-88
2022/10/17 07:01:16;;;;;;;12.77;7.13;;;14.50;99.90;;;;;;5041307;28;20104;-88
2022/10/17 07:03:44;;;;;;;12.13;6.55;;;14.50;99.90;;;;;;5048453;28;20515;-88
2022/10/17 07:06:10;;;;;;;13.60;6.90;;;14.60;99.90;;;;;;5064422;28;20099;-88
2022/10/17 07:08:36;;;;;;;13.52;8.00;;;14.70;99.90;;;;;;5048182;28;20041;-87
2022/10/17 07:11:10;;;;;;;10.32;6.22;;;14.70;99.90;;;;;;5047554;28;20037;-88
2022/10/17 07:13:36;;;;;;;13.75;6.40;;;14.70;99.90;;;;;;5064731;28;20045;-88
2022/10/17 07:16:01;;;;;;;11.50;6.80;;;14.80;99.90;;;;;;5042096;28;20075;-88
2022/10/17 07:18:27;;;;;;;14.13;6.80;;;14.80;99.90;;;;;;5024697;28;20044;-88
2022/10/17 07:20:54;;;;;;;12.40;6.78;;;15.00;99.90;;;;;;5042044;28;20045;-88
2022/10/17 07:23:20;;;;;;;14.20;6.13;;;15.00;99.90;;;;;;5041303;28;20112;-89
2022/10/17 07:25:46;;;;;;;8.95;5.53;;;15.10;99.90;;;;;;5043427;28;20053;-88
2022/10/17 07:28:13;;;;;;;14.15;6.57;;;15.20;99.90;;;;;;5042652;28;20562;-90
2022/10/17 07:30:39;;;;;;;10.88;7.10;;;15.30;99.90;;;;;;5041239;28;20049;-88
2022/10/17 07:33:04;;;;;;;9.38;5.18;;;15.40;99.90;;;;;;5023978;28;20079;-88
2022/10/17 07:35:30;;;;;;;12.02;6.35;;;15.50;99.90;;;;;;5057426;28;20041;-88
2022/10/17 07:37:56;;;;;;;11.80;6.38;;;15.60;99.90;;;;;;5060081;28;20123;-88
2022/10/17 07:40:21;;;;;;;7.75;5.38;;;15.80;99.90;;;;;;5060764;28;20037;-88
2022/10/17 07:42:47;;;;;;;9.50;5.47;;;15.80;99.90;;;;;;5058201;28;20052;-88
2022/10/17 07:45:13;;;;;;;13.65;6.13;;;15.90;99.90;;;;;;5040501;28;20099;-88
2022/10/17 07:47:38;;;;;;;14.02;5.55;;;16.00;99.90;;;;;;5025689;28;20543;-89
2022/10/17 07:50:05;;;;;;;7.75;4.70;;;16.00;99.90;;;;;;5027643;28;20080;-87
2022/10/17 07:52:30;;;;;;;10.77;4.60;;;16.10;99.90;;;;;;5060665;28;20064;-88
2022/10/17 07:54:56;;;;;;;8.68;5.00;;;16.10;99.90;;;;;;5044487;28;20045;-88
2022/10/17 07:57:22;;;;;;;9.75;4.65;;;16.20;99.90;;;;;;5060261;28;20048;-88
2022/10/17 07:59:49;;;;;;;6.93;4.55;;;16.20;99.90;;;;;;5044937;28;20041;-88
2022/10/17 08:02:23;;;;;;;12.15;5.53;;;16.20;99.90;;;;;;5060257;28;20225;-88
2022/10/17 08:04:49;;;;;;;12.23;5.40;;;16.20;99.90;;;;;;5060525;28;20048;-88
2022/10/17 08:07:15;;;;;;;11.63;5.40;;;16.30;99.90;;;;;;5060393;28;21001;-88
2022/10/17 08:09:42;;;;;;;14.93;5.53;;;16.30;99.90;;;;;;5061397;28;20040;-88
2022/10/17 08:12:07;;;;;;;11.10;5.70;;;16.30;99.90;;;;;;5047799;28;20063;-88
2022/10/17 08:14:33;;;;;;;8.15;5.22;;;16.30;99.90;;;;;;5061945;28;20041;-88
2022/10/17 08:16:59;;;;;;;14.93;5.22;;;16.30;99.90;;;;;;5044861;28;20107;-87
2022/10/17 08:19:24;;;;;;;10.68;4.63;;;16.30;99.90;;;;;;5043349;28;20060;-88
2022/10/17 08:21:51;;;;;;;7.43;5.40;;;16.30;99.90;;;;;;5043992;28;20112;-88
2022/10/17 08:24:17;;;;;;;12.73;5.55;;;16.30;99.90;;;;;;5043927;28;20056;-88
2022/10/17 08:26:42;;;;;;;8.55;4.97;;;16.30;99.90;;;;;;5043311;28;20404;-87
2022/10/17 08:29:15;;;;;;;10.18;5.20;;;16.30;99.90;;;;;;5044092;28;20064;-88
2022/10/17 08:31:41;;;;;;;7.35;4.60;;;16.30;99.90;;;;;;5026465;28;20052;-88
2022/10/17 08:34:07;;;;;;;8.60;4.70;;;16.30;99.90;;;;;;5060529;28;20056;-88
2022/10/17 08:36:33;;;;;;;11.98;4.75;;;16.30;99.90;;;;;;5059776;28;20044;-87
2022/10/17 08:38:59;;;;;;;9.68;5.63;;;16.20;99.90;;;;;;5061576;28;20051;-87
2022/10/17 08:41:42;;;;;;;10.40;5.05;;;16.30;99.90;;;;;;5026828;28;20642;-88
2022/10/17 08:44:14;;;;;;;8.23;4.25;;;16.30;99.90;;;;;;5043207;28;20071;-88
2022/10/17 08:46:42;;;;;;;9.90;4.97;;;16.30;99.90;;;;;;5060642;28;20049;-87
2022/10/17 08:49:31;;;;;;;5.93;4.32;;;16.40;99.90;;;;;;5042618;28;20052;-88
2022/10/17 08:52:36;;;;;;;18.20;6.53;;;16.40;99.90;;;;;;5059144;28;20052;-88
2022/10/17 08:55:03;;;;;;;9.02;4.80;;;16.50;99.90;;;;;;5043399;28;20051;-87
2022/10/17 08:57:29;;;;;;;11.55;6.18;;;16.50;99.90;;;;;;5042293;28;20153;-88
2022/10/17 08:59:55;;;;;;;9.88;4.90;;;16.60;99.90;;;;;;5026479;28;20053;-87
2022/10/17 09:02:26;;;;;;;10.15;5.35;;;16.60;99.90;;;;;;5059020;28;20510;-87
2022/10/17 09:05:24;;;;;;;12.63;5.55;;;16.60;99.90;;;;;;5042905;28;20076;-88
2022/10/17 09:08:13;;;;;;;12.93;4.53;;;16.60;99.90;;;;;;5056562;28;20116;-87
2022/10/17 09:11:08;;;;;;;10.57;4.82;;;16.60;99.90;;;;;;5058736;28;20049;-88
2022/10/17 09:13:56;;;;;;;11.70;5.15;;;16.50;99.90;;;;;;5042437;28;20087;-88
2022/10/17 09:16:59;;;;;;;8.65;5.32;;;16.60;99.90;;;;;;5043215;28;20051;-88
2022/10/17 09:19:32;;;;;;;7.15;4.93;;;16.60;99.90;;;;;;5055287;28;20060;-87
2022/10/17 09:22:12;;;;;;;12.30;5.45;;;16.60;99.90;;;;;;5042463;28;20056;-88
2022/10/17 09:24:43;;;;;;;8.27;4.57;;;16.70;99.90;;;;;;5059210;28;20044;-88
2022/10/17 09:27:23;;;;;;;14.43;4.45;;;16.70;99.90;;;;;;5058597;28;20044;-88
2022/10/17 09:29:59;;;;;;;10.30;4.70;;;16.70;99.90;;;;;;5043307;28;20053;-88
2022/10/17 09:32:25;;;;;;;16.50;5.18;;;16.70;99.90;;;;;;5041977;28;20045;-89
2022/10/17 09:34:52;;;;;;;8.93;4.72;;;16.70;99.90;;;;;;5058761;28;20053;-88
2022/10/17 09:37:21;;;;;;;7.30;5.40;;;16.70;99.90;;;;;;5042249;28;20446;-88
2022/10/17 09:39:47;;;;;;;9.43;5.00;;;16.60;99.90;;;;;;5042636;28;20043;-87
2022/10/17 09:42:20;;;;;;;9.98;5.07;;;16.60;99.90;;;;;;5059568;28;20177;-89
2022/10/17 09:45:29;;;;;;;9.82;5.40;;;16.60;99.90;;;;;;5058562;28;20044;-88
2022/10/17 09:48:13;;;;;;;8.52;5.20;;;16.60;99.90;;;;;;5058764;28;20048;-88
2022/10/17 09:50:40;;;;;;;8.50;5.18;;;16.60;99.90;;;;;;5042918;28;20048;-87
2022/10/17 09:53:13;;;;;;;20.92;6.45;;;16.50;99.90;;;;;;5024792;28;20447;-87
2022/10/17 09:55:43;;;;;;;12.68;5.68;;;16.50;99.90;;;;;;5058863;28;20051;-87
2022/10/17 09:58:10;;;;;;;8.13;5.15;;;16.50;99.90;;;;;;5057956;28;20041;-88
2022/10/17 10:00:36;;;;;;;9.80;5.70;;;16.50;99.90;;;;;;5058118;28;20064;-87
2022/10/17 10:03:10;;;;;;;8.50;5.53;;;16.40;99.90;;;;;;5041289;28;20044;-87
2022/10/17 10:05:35;;;;;;;11.57;6.20;;;16.40;99.90;;;;;;5041283;28;20059;-87
2022/10/17 10:08:14;;;;;;;10.25;5.25;;;16.40;99.90;;;;;;5025611;28;20061;-87
2022/10/17 10:10:43;;;;;;;10.55;6.63;;;16.40;99.90;;;;;;5060117;28;20049;-87
2022/10/17 10:13:12;;;;;;;10.43;5.68;;;16.30;99.90;;;;;;5047812;28;20052;-88
2022/10/17 10:15:43;;;;;;;10.20;4.90;;;16.40;99.90;;;;;;5066721;28;20072;-88
2022/10/17 10:18:31;;;;;;;14.48;5.50;;;16.40;99.90;;;;;;5068287;28;20037;-88
2022/10/17 10:21:15;;;;;;;9.18;5.72;;;16.30;99.90;;;;;;5069301;28;20037;-87
2022/10/17 10:24:01;;;;;;;13.13;5.65;;;16.40;99.90;;;;;;5062096;28;20060;-87
2022/10/17 10:26:32;;;;;;;10.57;5.65;;;16.30;99.90;;;;;;5027430;28;20060;-86
2022/10/17 10:29:19;;;;;;;13.05;6.68;;;16.30;99.90;;;;;;5057938;28;20112;-87
2022/10/17 10:31:46;;;;;;;10.73;6.07;;;16.30;99.90;;;;;;5040539;28;20091;-87
2022/10/17 10:34:20;;;;;;;11.90;6.82;;;16.30;99.90;;;;;;5042016;28;20103;-87
2022/10/17 10:36:58;;;;;;;10.10;5.85;;;16.20;99.90;;;;;;5057547;28;20155;-86
2022/10/17 10:39:26;;;;;;;12.48;5.93;;;16.20;99.90;;;;;;5057472;28;20122;-85
2022/10/17 10:41:53;;;;;;;9.02;5.53;;;16.20;99.90;;;;;;5057580;28;20049;-86
2022/10/17 10:44:22;;;;;;;11.10;6.78;;;16.20;99.90;;;;;;5040480;28;20041;-85
2022/10/17 10:47:13;;;;;;;12.23;6.13;;;16.20;99.90;;;;;;5058329;28;20051;-85
2022/10/17 10:49:39;;;;;;;10.02;5.85;;;16.20;99.90;;;;;;5058834;28;20071;-86
2022/10/17 10:52:07;;;;;;;12.80;6.70;;;16.20;99.90;;;;;;5044990;28;20037;-85
2022/10/17 10:54:41;;;;;;;15.35;6.60;;;16.20;99.90;;;;;;5040807;28;20109;-86
2022/10/17 10:57:18;;;;;;;14.63;6.53;;;16.20;99.90;;;;;;5040482;28;20108;-86
2022/10/17 10:59:50;;;;;;;13.52;6.35;;;16.20;99.90;;;;;;5058251;28;20190;-86
2022/10/17 11:02:31;;;;;;;10.93;6.05;;;16.20;99.90;;;;;;5058177;28;20060;-86
2022/10/17 11:05:03;;;;;;;10.82;6.43;;;16.20;99.90;;;;;;5057347;28;20052;-86
2022/10/17 11:07:32;;;;;;;;;;;16.30;99.90;;;;;;5040863;28;20045;-87
2022/10/17 11:10:18;;;;;;;12.40;6.68;;;16.30;99.90;;;;;;5058423;28;19921;-87
2022/10/17 11:13:12;;;;;;;11.98;6.22;;;16.30;99.90;;;;;;5057499;28;20049;-86
2022/10/17 11:15:53;;;;;;;14.07;6.22;;;16.30;99.90;;;;;;5040264;28;20080;-87
2022/10/17 11:18:34;;;;;;;11.18;6.03;;;16.30;99.90;;;;;;5039971;28;20041;-87
2022/10/17 11:21:05;;;;;;;12.00;5.93;;;16.30;99.90;;;;;;5041455;28;20049;-86
2022/10/17 11:23:40;;;;;;;13.38;6.40;;;16.30;99.90;;;;;;5042812;28;20053;-87
2022/10/17 11:26:13;;;;;;;10.82;6.20;;;16.30;99.90;;;;;;5044387;28;20079;-87
2022/10/17 11:28:39;;;;;;;10.05;6.25;;;16.30;99.90;;;;;;5043817;28;20464;-87
2022/10/17 11:31:10;;;;;;;10.32;5.97;;;16.40;99.90;;;;;;5027679;28;20056;-88
2022/10/17 11:33:54;;;;;;;9.98;5.85;;;16.40;99.90;;;;;;5060852;28;20049;-87
2022/10/17 11:36:27;;;;;;;8.20;5.55;;;16.40;99.90;;;;;;5060259;28;20084;-87
2022/10/17 11:38:58;;;;;;;10.40;5.80;;;16.40;99.90;;;;;;5044381;28;20045;-87
2022/10/17 11:41:40;;;;;;;13.85;6.00;;;16.40;99.90;;;;;;5060765;28;20069;-87
2022/10/17 11:44:34;;;;;;;11.32;5.40;;;16.40;99.90;;;;;;5060400;28;20041;-87
2022/10/17 11:47:27;;;;;;;10.75;5.60;;;16.40;99.90;;;;;;5045011;28;20037;-87
2022/10/17 11:49:59;;;;;;;10.38;6.78;;;16.40;99.90;;;;;;5060413;28;20049;-88
2022/10/17 11:52:27;;;;;;;;;;;16.40;99.90;;;;;;5060758;28;20045;-88
2022/10/17 11:54:58;;;;;;;11.65;5.47;;;16.40;99.90;;;;;;5060852;28;19920;-87
2022/10/17 11:57:43;;;;;;;9.15;6.03;;;16.50;99.90;;;;;;5043340;28;20037;-89
2022/10/17 12:00:09;;;;;;;10.60;5.72;;;16.40;99.90;;;;;;5044405;28;20138;-87
2022/10/17 12:03:00;;;;;;;14.20;5.70;;;16.50;99.90;;;;;;5059987;28;20049;-88
2022/10/17 12:05:37;;;;;;;10.75;5.43;;;16.60;99.90;;;;;;5060748;28;20257;-88
2022/10/17 12:08:33;;;;;;;11.65;6.25;;;16.70;99.90;;;;;;5045772;28;20075;-88
2022/10/17 12:11:08;;;;;;;10.88;5.60;;;16.70;99.90;;;;;;5060444;28;20125;-88
2022/10/17 12:13:34;;;;;;;7.45;4.95;;;16.80;99.90;;;;;;5043569;28;20060;-88
2022/10/17 12:16:18;;;;;;;10.55;5.30;;;16.90;99.90;;;;;;5060163;28;20045;-88
2022/10/17 12:18:50;;;;;;;8.63;5.20;;;16.90;99.90;;;;;;5059288;28;20045;-88
2022/10/17 12:21:16;;;;;;;11.18;5.20;;;17.00;99.90;;;;;;5028150;28;20053;-89
2022/10/17 12:23:51;;;;;;;6.03;4.00;;;17.00;99.90;;;;;;5042653;28;20044;-88
2022/10/17 12:26:26;;;;;;;7.20;4.30;;;17.10;99.90;;;;;;5027032;28;20107;-89
2022/10/17 12:28:52;;;;;;;7.03;4.63;;;17.00;99.90;;;;;;5059934;28;20048;-88
2022/10/17 12:31:18;;;;;;;17.77;5.13;;;17.00;99.90;;;;;;5026386;28;20048;-89
2022/10/17 12:33:49;;;;;;;6.00;3.92;;;17.10;99.90;;;;;;5042389;28;20137;-88
2022/10/17 12:36:17;;;;;;;10.70;4.60;;;17.10;99.90;;;;;;5042550;28;20511;-89
2022/10/17 12:38:45;;;;;;;10.75;4.25;;;17.20;99.90;;;;;;5060440;28;20056;-87
2022/10/17 12:41:11;;;;;;;7.47;4.43;;;17.20;99.90;;;;;;5059394;28;20114;-88
2022/10/17 12:43:47;;;;;;;6.30;4.05;;;17.20;99.90;;;;;;5059549;28;20425;-89
2022/10/17 12:46:34;;;;;;;5.60;4.15;;;17.20;99.90;;;;;;5059664;28;20508;-88
2022/10/17 12:49:18;;;;;;;5.10;3.88;;;17.20;99.90;;;;;;5042141;28;20048;-88
2022/10/17 12:52:16;;;;;;;5.57;3.60;;;17.10;99.90;;;;;;5043059;28;20095;-88
2022/10/17 12:54:54;;;;;;;6.50;4.53;;;17.10;99.90;;;;;;5059119;28;20064;-89
2022/10/17 12:57:28;;;;;;;6.10;3.83;;;17.10;99.90;;;;;;5044959;28;20045;-89
2022/10/17 12:59:54;;;;;;;15.38;4.25;;;17.10;99.90;;;;;;5063210;28;20123;-88